This is the latest recevied weather packets stored in our database for station/object KC4JIR. If no packets are shown the sender has not sent any weather packets the latest 10 day(s).
| Time | Temp. | Humidity | Pressure | Rain* | Wind** | Luminosity | Snow |
|---|---|---|---|---|---|---|---|
| 1778012377 | 28.89° C | 42% | 1011.6 hPa | 0 mm | - | 652 W/m² | - |
| 1778012075 | 28.89° C | 40% | 1011.8 hPa | 0 mm | - | 584 W/m² | - |
| 1778011773 | 29.44° C | 44% | 1012 hPa | 0 mm | - | 583 W/m² | - |
| 1778011470 | 28.89° C | 42% | 1011.9 hPa | 0 mm | - | 602 W/m² | - |
| 1778011165 | 29.44° C | 42% | 1011.7 hPa | 0 mm | - | 609 W/m² | - |
| 1778010863 | 29.44° C | 44% | 1012.1 hPa | 0 mm | - | 649 W/m² | - |
| 1778010560 | 28.89° C | 43% | 1012.1 hPa | 0 mm | - | 664 W/m² | - |
| 1778010258 | 28.89° C | 43% | 1012.3 hPa | 0 mm | - | 657 W/m² | - |
| 1778009957 | 28.89° C | 42% | 1012.3 hPa | 0 mm | - | 657 W/m² | - |
| 1778009655 | 28.33° C | 45% | 1012.4 hPa | 0 mm | - | 669 W/m² | - |
| 1778009353 | 28.89° C | 46% | 1012.4 hPa | 0 mm | - | 567 W/m² | - |
| 1778009051 | 28.33° C | 43% | 1012.3 hPa | 0 mm | - | 522 W/m² | - |
| 1778008748 | 28.89° C | 44% | 1012.4 hPa | 0 mm | - | 560 W/m² | - |
| 1778008447 | 28.33° C | 42% | 1012.6 hPa | 0 mm | - | 696 W/m² | - |
| 1778008143 | 28.33° C | 43% | 1012.5 hPa | 0 mm | - | 699 W/m² | - |
| 1778007838 | 28.33° C | 45% | 1012.8 hPa | 0 mm | - | 738 W/m² | - |
| 1778007534 | 28.33° C | 44% | 1013.2 hPa | 0 mm | - | 741 W/m² | - |
| 1778007231 | 27.78° C | 44% | 1012.8 hPa | 0 mm | - | 698 W/m² | - |
| 1778006927 | 27.78° C | 47% | 1013.3 hPa | 0 mm | - | 698 W/m² | - |
| 1778006624 | 27.78° C | 45% | 1013.2 hPa | 0 mm | - | 755 W/m² | - |
| 1778006321 | 27.78° C | 46% | 1013.5 hPa | 0 mm | - | 750 W/m² | - |
| 1778006018 | 27.22° C | 47% | 1013.5 hPa | 0 mm | - | 563 W/m² | - |
| 1778005714 | 27.78° C | 45% | 1013.6 hPa | 0 mm | - | 477 W/m² | - |
| 1778005411 | 26.67° C | 49% | 1013.5 hPa | 0 mm | - | 792 W/m² | - |
| 1778005108 | 27.78° C | 48% | 1013.4 hPa | 0 mm | - | 110 W/m² | - |
* Rain latest hour (hover to see other rain measurements)
** Current wind speed in m/s (hover to see current wind gust speed)